createdAt,value
2023-05-03T00:01:15.482Z,1012.59
2023-05-03T00:06:15.463Z,1012.62
2023-05-03T00:11:15.351Z,1012.64
2023-05-03T00:16:15.307Z,1012.57
2023-05-03T00:21:15.233Z,1012.65
2023-05-03T00:26:15.178Z,1012.61
2023-05-03T00:31:15.202Z,1012.58
2023-05-03T00:36:15.086Z,1012.66
2023-05-03T00:41:14.985Z,1012.60
2023-05-03T00:46:17.433Z,1012.58
2023-05-03T00:51:14.855Z,1012.56
2023-05-03T00:56:14.770Z,1012.53
2023-05-03T01:01:14.723Z,1012.61
2023-05-03T01:06:14.653Z,1012.60
2023-05-03T01:11:14.577Z,1012.58
2023-05-03T01:16:14.589Z,1012.57
2023-05-03T01:21:14.446Z,1012.60
2023-05-03T01:26:14.394Z,1012.63
2023-05-03T01:31:14.378Z,1012.55
2023-05-03T01:36:14.254Z,1012.62
2023-05-03T01:41:14.177Z,1012.68
2023-05-03T01:46:14.214Z,1012.65
2023-05-03T01:51:14.088Z,1012.66
2023-05-03T01:56:13.985Z,1012.66
2023-05-03T02:01:13.972Z,1012.64
2023-05-03T02:06:13.906Z,1012.57
2023-05-03T02:11:13.781Z,1012.67
2023-05-03T02:16:13.828Z,1012.57
2023-05-03T02:21:14.045Z,1012.66
2023-05-03T02:26:13.600Z,1012.69
2023-05-03T02:31:13.652Z,1012.59
2023-05-03T02:36:13.467Z,1012.62
2023-05-03T02:41:13.386Z,1012.67
2023-05-03T02:46:13.360Z,1012.69
2023-05-03T02:51:13.255Z,1012.71
2023-05-03T02:56:13.224Z,1012.79
2023-05-03T03:01:13.195Z,1012.82
2023-05-03T03:06:13.137Z,1012.88
2023-05-03T03:11:13.001Z,1012.95
2023-05-03T03:16:12.950Z,1012.96
2023-05-03T03:21:12.861Z,1013.03
2023-05-03T03:26:12.835Z,1013.12
2023-05-03T03:31:12.753Z,1013.19
2023-05-03T03:36:12.656Z,1013.07
2023-05-03T03:41:12.603Z,1013.11
2023-05-03T03:46:12.519Z,1013.20
2023-05-03T03:51:12.454Z,1013.18
2023-05-03T03:56:12.392Z,1013.22
2023-05-03T04:01:12.320Z,1013.30
2023-05-03T04:06:12.281Z,1013.38
2023-05-03T04:11:12.198Z,1013.41
2023-05-03T04:16:12.122Z,1013.48
2023-05-03T04:21:12.062Z,1013.52
2023-05-03T04:26:23.532Z,1013.70
2023-05-03T04:31:12.942Z,1013.69
2023-05-03T04:36:11.839Z,1013.75
2023-05-03T04:41:13.440Z,1013.89
2023-05-03T04:46:11.757Z,1013.94
2023-05-03T04:51:11.650Z,1013.94
2023-05-03T04:56:11.579Z,1013.97
2023-05-03T05:01:11.517Z,1013.93
2023-05-03T05:06:11.465Z,1014.04
2023-05-03T05:11:11.392Z,1014.06
2023-05-03T05:16:11.310Z,1014.11
2023-05-03T05:21:11.243Z,1014.14
2023-05-03T05:26:11.189Z,1014.23
2023-05-03T05:31:11.182Z,1014.25
2023-05-03T05:36:11.058Z,1014.24
2023-05-03T05:41:10.966Z,1014.32
2023-05-03T05:46:10.875Z,1014.38
2023-05-03T05:51:10.812Z,1014.41
2023-05-03T05:56:10.741Z,1014.37
2023-05-03T06:01:10.698Z,1014.39
2023-05-03T06:06:10.619Z,1014.44
2023-05-03T06:11:10.561Z,1014.42
2023-05-03T06:16:10.487Z,1014.82
2023-05-03T06:21:10.449Z,1014.47
2023-05-03T06:26:10.344Z,1014.52
2023-05-03T06:31:10.317Z,1014.45
2023-05-03T06:36:10.218Z,1014.49
2023-05-03T06:41:10.195Z,1014.61
2023-05-03T06:46:10.175Z,1014.57
2023-05-03T06:51:10.024Z,1014.54
2023-05-03T06:56:09.965Z,1014.71
2023-05-03T07:01:09.931Z,1014.82
2023-05-03T07:06:09.886Z,1014.68
2023-05-03T07:11:09.770Z,1014.69
2023-05-03T07:16:09.723Z,1014.62
2023-05-03T07:21:09.737Z,1014.60
2023-05-03T07:26:09.566Z,1014.53
2023-05-03T07:31:09.496Z,1014.44
2023-05-03T07:36:09.427Z,1014.50
2023-05-03T07:41:09.393Z,1014.37
2023-05-03T07:46:09.333Z,1014.33
2023-05-03T07:51:09.243Z,1014.35
2023-05-03T07:56:09.172Z,1014.38
2023-05-03T08:01:09.142Z,1014.19
2023-05-03T08:06:09.103Z,1014.25
2023-05-03T08:11:08.983Z,1014.22
2023-05-03T08:16:08.957Z,1014.17
2023-05-03T08:21:08.854Z,1014.23
2023-05-03T08:26:08.793Z,1014.21
2023-05-03T08:31:08.975Z,1014.08
2023-05-03T08:36:08.676Z,1014.10
2023-05-03T08:41:08.607Z,1014.05
2023-05-03T08:46:08.569Z,1014.09
2023-05-03T08:51:08.464Z,1013.90
2023-05-03T08:56:08.392Z,1013.97
2023-05-03T09:01:08.363Z,1013.93
2023-05-03T09:06:09.292Z,1013.91
2023-05-03T09:11:08.197Z,1013.94
2023-05-03T09:16:08.134Z,1013.97
2023-05-03T09:21:08.065Z,1013.89
2023-05-03T09:26:08.037Z,1013.97
2023-05-03T09:31:08.000Z,1013.86
2023-05-03T09:36:08.031Z,1013.92
2023-05-03T09:41:07.947Z,1013.94
2023-05-03T09:46:07.800Z,1013.93
2023-05-03T09:51:07.752Z,1013.91
2023-05-03T09:56:07.662Z,1013.99
2023-05-03T10:01:07.684Z,1013.84
2023-05-03T10:06:07.559Z,1013.78
2023-05-03T10:11:07.431Z,1013.71
2023-05-03T10:16:07.400Z,1013.77
2023-05-03T10:21:07.314Z,1013.74
2023-05-03T10:26:07.282Z,1013.66
2023-05-03T10:31:07.202Z,1013.71
2023-05-03T10:36:07.133Z,1013.69
2023-05-03T10:41:07.101Z,1013.61
2023-05-03T10:46:07.106Z,1013.60
2023-05-03T10:51:06.914Z,1013.62
2023-05-03T10:56:06.879Z,1013.54
2023-05-03T11:01:06.820Z,1013.50
2023-05-03T11:06:06.761Z,1013.42
2023-05-03T11:11:06.628Z,1013.45
2023-05-03T11:16:06.660Z,1013.50
2023-05-03T11:21:06.499Z,1013.42
2023-05-03T11:26:06.460Z,1013.46
2023-05-03T11:31:06.389Z,1013.43
2023-05-03T11:36:06.312Z,1013.33
2023-05-03T11:41:06.218Z,1013.37
2023-05-03T11:46:06.221Z,1013.42
2023-05-03T11:51:06.109Z,1013.33
2023-05-03T11:56:06.009Z,1013.39
2023-05-03T12:01:05.996Z,1013.33
2023-05-03T12:06:06.702Z,1013.51
2023-05-03T12:11:06.588Z,1013.40
2023-05-03T12:16:12.936Z,1013.39
2023-05-03T12:21:30.826Z,1013.25
2023-05-03T12:26:09.533Z,1013.21
2023-05-03T12:31:05.832Z,1013.19
2023-05-03T12:36:09.251Z,1013.23
2023-05-03T12:41:08.763Z,1013.13
2023-05-03T12:46:32.099Z,1012.97
2023-05-03T12:56:06.723Z,1012.95
2023-05-03T13:01:37.044Z,1012.91
2023-05-03T13:06:12.529Z,1012.94
2023-05-03T13:11:06.391Z,1012.81
2023-05-03T13:16:05.512Z,1012.84
2023-05-03T13:21:04.890Z,1012.78
2023-05-03T13:26:04.832Z,1012.74
2023-05-03T13:31:04.752Z,1012.70
2023-05-03T13:36:04.657Z,1012.63
2023-05-03T13:41:04.630Z,1012.62
2023-05-03T13:46:04.568Z,1012.62
2023-05-03T13:51:04.462Z,1012.58
2023-05-03T13:56:04.396Z,1012.32
2023-05-03T14:01:04.481Z,1012.45
2023-05-03T14:06:04.263Z,1012.49
2023-05-03T14:11:06.125Z,1012.43
2023-05-03T14:16:04.129Z,1012.47
2023-05-03T14:21:04.077Z,1012.42
2023-05-03T14:26:04.002Z,1012.41
2023-05-03T14:31:03.986Z,1012.32
2023-05-03T14:36:03.863Z,1012.33
2023-05-03T14:41:03.791Z,1012.28
2023-05-03T14:46:03.714Z,1012.32
2023-05-03T14:51:03.658Z,1012.21
2023-05-03T14:56:03.602Z,1012.19
2023-05-03T15:01:03.599Z,1012.21
2023-05-03T15:06:03.456Z,1012.19
2023-05-03T15:11:03.443Z,1012.26
2023-05-03T15:16:03.333Z,1012.28
2023-05-03T15:21:03.254Z,1012.19
2023-05-03T15:26:03.179Z,1012.19
2023-05-03T15:31:03.162Z,1012.21
2023-05-03T15:36:03.191Z,1012.11
2023-05-03T15:41:03.004Z,1012.11
2023-05-03T15:46:02.961Z,1012.14
2023-05-03T15:51:02.844Z,1012.04
2023-05-03T15:56:02.786Z,1012.00
2023-05-03T16:01:02.757Z,1011.94
2023-05-03T16:06:02.675Z,1012.00
2023-05-03T16:11:02.595Z,1011.91
2023-05-03T16:16:02.571Z,1011.89
2023-05-03T16:21:02.486Z,1011.79
2023-05-03T16:26:02.380Z,1011.81
2023-05-03T16:31:02.333Z,1011.76
2023-05-03T16:36:02.276Z,1011.74
2023-05-03T16:41:02.202Z,1011.64
2023-05-03T16:46:02.146Z,1011.69
2023-05-03T16:51:02.057Z,1011.52
2023-05-03T16:56:01.978Z,1011.56
2023-05-03T17:01:01.938Z,1011.53
2023-05-03T17:06:03.721Z,1011.58
2023-05-03T17:11:01.799Z,1011.56
2023-05-03T17:16:01.712Z,1011.64
2023-05-03T17:21:01.652Z,1011.59
2023-05-03T17:26:01.586Z,1011.71
2023-05-03T17:31:01.537Z,1011.61
2023-05-03T17:36:01.452Z,1011.55
2023-05-03T17:41:01.379Z,1011.61
2023-05-03T17:46:01.353Z,1011.66
2023-05-03T17:51:01.358Z,1011.64
2023-05-03T17:56:01.201Z,1011.53
2023-05-03T18:01:01.136Z,1011.65
2023-05-03T18:06:01.038Z,1011.67
2023-05-03T18:11:00.973Z,1011.67
2023-05-03T18:16:00.989Z,1011.75
2023-05-03T18:21:00.861Z,1011.83
2023-05-03T18:26:00.771Z,1011.92
2023-05-03T18:31:00.731Z,1011.93
2023-05-03T18:36:00.651Z,1011.94
2023-05-03T18:41:00.583Z,1011.93
2023-05-03T18:46:00.504Z,1011.98
2023-05-03T18:51:00.449Z,1012.03
2023-05-03T18:56:00.385Z,1012.09
2023-05-03T19:01:00.613Z,1012.12
2023-05-03T19:06:00.236Z,1012.15
2023-05-03T19:11:00.180Z,1012.15
2023-05-03T19:16:00.151Z,1012.23
2023-05-03T19:21:00.103Z,1012.22
2023-05-03T19:26:00.003Z,1012.31
2023-05-03T19:30:59.969Z,1012.14
2023-05-03T19:36:00.023Z,1012.15
2023-05-03T19:40:59.801Z,1012.17
2023-05-03T19:45:59.824Z,1012.14
2023-05-03T19:50:59.693Z,1012.13
2023-05-03T19:55:59.600Z,1012.09
2023-05-03T20:00:59.556Z,1012.18
2023-05-03T20:05:59.470Z,1012.25
2023-05-03T20:11:00.204Z,1012.25
2023-05-03T20:15:59.353Z,1012.32
2023-05-03T20:20:59.252Z,1012.25
2023-05-03T20:25:59.177Z,1012.23
2023-05-03T20:30:59.100Z,1012.27
2023-05-03T20:35:59.081Z,1012.25
2023-05-03T20:40:58.978Z,1012.25
2023-05-03T20:45:58.952Z,1012.21
2023-05-03T20:50:58.844Z,1012.23
2023-05-03T20:55:58.783Z,1012.15
2023-05-03T21:00:58.765Z,1012.24
2023-05-03T21:05:58.641Z,1012.20
2023-05-03T21:10:58.594Z,1012.13
2023-05-03T21:15:58.509Z,1012.16
2023-05-03T21:20:58.433Z,1012.11
2023-05-03T21:25:58.364Z,1012.12
2023-05-03T21:30:58.305Z,1012.09
2023-05-03T21:35:58.231Z,1012.04
2023-05-03T21:40:58.182Z,1012.10
2023-05-03T21:45:58.150Z,1012.14
2023-05-03T21:50:58.046Z,1012.16
2023-05-03T21:55:57.965Z,1012.17
2023-05-03T22:00:57.902Z,1012.12
2023-05-03T22:05:57.838Z,1012.21
2023-05-03T22:10:57.775Z,1012.15
2023-05-03T22:15:57.737Z,1012.19
2023-05-03T22:20:57.643Z,1012.28
2023-05-03T22:25:57.587Z,1012.25
2023-05-03T22:30:57.513Z,1012.15
2023-05-03T22:35:57.446Z,1012.13
2023-05-03T22:40:57.387Z,1012.10
2023-05-03T22:45:57.357Z,1012.18
2023-05-03T22:50:57.251Z,1012.07
2023-05-03T22:55:57.182Z,1012.09
2023-05-03T23:00:57.144Z,1012.10
2023-05-03T23:05:57.061Z,1012.16
2023-05-03T23:10:56.984Z,1012.05
2023-05-03T23:15:57.153Z,1012.04
2023-05-03T23:20:56.844Z,1012.07
2023-05-03T23:25:56.786Z,1011.99
2023-05-03T23:30:56.726Z,1012.01
2023-05-03T23:35:56.636Z,1011.92
2023-05-03T23:40:56.567Z,1012.00
2023-05-03T23:45:56.517Z,1011.95
2023-05-03T23:50:56.439Z,1011.98
2023-05-03T23:55:56.366Z,1011.83
